Time;durP1;ratioP1;P1;durP2;ratioP2;P2;SDS_P1;SDS_P2;PMS_P1;PMS_P2;Temp;Humidity;BMP_temperature;BMP_pressure;BME280_temperature;BME280_humidity;BME280_pressure;Samples;Min_cycle;Max_cycle;Signal;HPM_P1;HPM_P2
2021/01/11 00:02:16;;;;;;;3.10;1.85;;;;;;;0.05;4.61;2608621.50;5052935;28;20032;-86
2021/01/11 00:04:41;;;;;;;0.88;0.88;;;;;;;0.05;4.61;2589172.25;5052754;28;20047;-86
2021/01/11 00:07:11;;;;;;;5.38;1.95;;;;;;;0.05;4.60;2538604.50;5051713;28;20127;-86
2021/01/11 00:09:37;;;;;;;1.15;1.10;;;;;;;0.05;4.60;2470533.75;5053641;28;20477;-86
2021/01/11 00:12:03;;;;;;;0.95;0.95;;;;;;;0.05;4.60;2442333.50;5056925;28;20033;-86
2021/01/11 00:14:28;;;;;;;1.33;1.27;;;;;;;0.05;4.60;2413161.00;5057310;28;20051;-86
2021/01/11 00:16:54;;;;;;;1.10;1.10;;;;;;;0.05;4.60;2383988.75;5056747;28;20048;-86
2021/01/11 00:19:19;;;;;;;0.20;0.20;;;;;;;0.05;4.59;2353844.25;5056741;28;20043;-86
2021/01/11 00:21:51;;;;;;;1.98;1.88;;;;;;;0.05;4.58;2335368.75;5055760;28;20404;-86
2021/01/11 00:24:16;;;;;;;0.68;0.68;;;;;;;0.05;4.59;2306197.25;5056058;28;20029;-86
2021/01/11 00:26:49;;;;;;;3.13;2.28;;;;;;;0.05;4.58;2260495.50;5056553;28;20033;-86
2021/01/11 00:29:15;;;;;;;0.40;0.40;;;;;;;0.05;4.59;2269247.00;5056914;28;20032;-86
2021/01/11 00:31:40;;;;;;;0.38;0.38;;;;;;;0.05;4.59;2237159.00;5056431;28;20033;-86
2021/01/11 00:34:05;;;;;;;3.13;2.83;;;;;;;0.05;4.58;2220628.75;5056442;28;20035;-86
2021/01/11 00:36:31;;;;;;;1.90;1.80;;;;;;;0.05;4.58;2180762.50;5055362;28;20037;-86
2021/01/11 00:38:56;;;;;;;3.40;2.65;;;;;;;0.05;4.58;2139924.25;5055299;28;20394;-86
2021/01/11 00:41:22;;;;;;;3.22;2.50;;;;;;;0.05;4.58;2062138.50;5055289;28;20481;-87
2021/01/11 00:43:49;;;;;;;1.30;1.23;;;;;;;0.05;4.58;2058249.38;5056286;28;20090;-86
2021/01/11 00:46:25;;;;;;;1.58;1.48;;;;;;;0.05;4.59;2047554.00;5055346;28;20485;-86
2021/01/11 00:48:51;;;;;;;4.78;2.28;;;;;;;0.05;4.59;2039775.50;5055065;28;20063;-86
2021/01/11 00:51:17;;;;;;;1.38;1.38;;;;;;;0.05;4.59;1991160.75;5055054;28;20029;-86
2021/01/11 00:53:44;;;;;;;1.92;1.83;;;;;;;0.05;4.59;1973659.50;5054859;28;20072;-87
2021/01/11 00:56:11;;;;;;;0.88;0.88;;;;;;;0.05;4.59;1957130.75;5054977;28;20028;-87
2021/01/11 00:58:36;;;;;;;2.10;0.80;;;;;;;0.05;4.58;1967825.88;5055941;28;20029;-86
2021/01/11 01:01:02;;;;;;;0.55;0.55;;;;;;;0.05;4.59;1987271.50;5054898;28;20057;-86
2021/01/11 01:03:27;;;;;;;0.40;0.40;;;;;;;0.05;4.59;2032969.38;5056149;28;20033;-86
2021/01/11 01:05:53;;;;;;;1.70;1.60;;;;;;;0.05;4.58;2005745.00;5056033;28;20104;-87
2021/01/11 01:08:18;;;;;;;1.30;1.20;;;;;;;0.05;4.58;2007689.75;5054735;28;20060;-86
2021/01/11 01:10:43;;;;;;;1.67;1.58;;;;;;;0.05;4.59;1951297.13;5055961;28;20377;-86
2021/01/11 01:13:09;;;;;;;0.45;0.45;;;;;;;0.05;4.59;1913378.50;5055990;28;20063;-86
2021/01/11 01:15:34;;;;;;;1.88;1.77;;;;;;;0.05;4.59;1884210.63;5055967;28;20029;-86
2021/01/11 01:18:00;;;;;;;0.85;0.85;;;;;;;0.05;4.60;1901711.38;5054958;28;20037;-86
2021/01/11 01:20:25;;;;;;;3.30;2.47;;;;;;;0.05;4.59;1894905.50;5055411;28;20504;-86
2021/01/11 01:22:51;;;;;;;4.68;1.55;;;;;;;0.05;4.58;1870599.00;5055932;28;20044;-86
2021/01/11 01:25:16;;;;;;;0.63;0.63;;;;;;;0.05;4.58;1856015.25;5054644;28;20029;-87
2021/01/11 01:27:42;;;;;;;0.63;0.63;;;;;;;0.05;4.58;1849209.50;5055566;28;20029;-87
2021/01/11 01:30:11;;;;;;;0.30;0.30;;;;;;;0.05;4.59;1863793.25;5054467;28;20021;-86
2021/01/11 01:32:38;;;;;;;0.98;0.95;;;;;;;0.05;4.59;1862821.00;5054864;28;20040;-87
2021/01/11 01:35:05;;;;;;;7.95;0.93;;;;;;;0.05;4.59;1838514.88;5054802;28;20031;-87
2021/01/11 01:37:30;;;;;;;0.95;0.95;;;;;;;0.05;4.58;1856015.25;5055242;28;20186;-86
2021/01/11 01:39:55;;;;;;;0.68;0.43;;;;;;;0.05;4.59;1833653.63;5055515;28;20107;-87
2021/01/11 01:42:21;;;;;;;3.22;1.08;;;;;;;0.05;4.59;1828792.50;5054388;28;20025;-86
2021/01/11 01:44:46;;;;;;;0.68;0.68;;;;;;;0.05;4.60;1817125.50;5054702;28;20025;-87
2021/01/11 01:47:13;;;;;;;0.47;0.47;;;;;;;0.05;4.60;1781153.00;5055266;28;20037;-86
2021/01/11 01:49:39;;;;;;;1.08;0.60;;;;;;;0.05;4.61;1761708.50;5055080;28;20028;-86
2021/01/11 01:52:05;;;;;;;1.65;1.27;;;;;;;0.05;4.61;1739347.38;5054178;28;20404;-86
2021/01/11 01:54:32;;;;;;;0.65;0.65;;;;;;;0.05;4.61;1715042.13;5055787;28;20053;-87
2021/01/11 01:56:57;;;;;;;0.90;0.90;;;;;;;0.05;4.60;1670320.88;5054069;28;20120;-86
2021/01/11 01:59:24;;;;;;;0.82;0.82;;;;;;;0.05;4.60;1663515.50;5054172;28;20112;-86
2021/01/11 02:01:53;;;;;;;2.00;1.90;;;;;;;0.05;4.60;1599351.38;5054210;28;20045;-86
2021/01/11 02:04:18;;;;;;;2.03;1.92;;;;;;;0.05;4.59;1571158.38;5055009;28;20467;-86
2021/01/11 02:06:47;;;;;;;1.50;1.42;;;;;;;0.05;4.59;1527411.25;5054870;28;20120;-86
2021/01/11 02:09:22;;;;;;;1.42;1.38;;;;;;;0.05;4.58;1477831.75;5054119;28;20095;-87
2021/01/11 02:11:55;;;;;;;6.28;1.40;;;;;;;0.05;4.58;1472971.13;5054963;28;20033;-86
2021/01/11 02:14:32;;;;;;;1.50;1.27;;;;;;;0.05;4.58;1448667.75;5055129;28;20098;-86
2021/01/11 02:17:09;;;;;;;4.70;3.03;;;;;;;0.05;4.59;1458389.00;5053667;28;20032;-86
2021/01/11 02:20:11;;;;;;;4.72;3.38;;;;;;;0.05;4.59;1492413.88;5054043;28;20040;-86
2021/01/11 02:22:51;;;;;;;2.13;2.03;;;;;;;0.05;4.60;1538105.00;5054548;28;20477;-86
2021/01/11 02:25:50;;;;;;;1.27;1.27;;;;;;;0.05;4.61;1618794.88;5054600;28;20024;-86
2021/01/11 02:28:35;;;;;;;2.97;1.60;;;;;;;0.05;4.62;1659626.75;5054598;28;20103;-86
2021/01/11 02:31:02;;;;;;;1.98;1.88;;;;;;;0.05;4.63;1662543.25;5054765;28;20485;-87
2021/01/11 02:33:30;;;;;;;1.40;1.33;;;;;;;0.05;4.63;1649904.75;5053261;28;20037;-87
2021/01/11 02:36:09;;;;;;;1.40;1.30;;;;;;;0.05;4.63;1651849.25;5054223;28;20033;-87
2021/01/11 02:38:37;;;;;;;2.30;2.15;;;;;;;0.05;4.63;1653793.50;5053662;28;20025;-87
2021/01/11 02:41:03;;;;;;;;;;;;;;;0.05;4.63;1674209.63;5054573;28;20491;-87
2021/01/11 02:43:28;;;;;;;1.17;0.85;;;;;;;0.05;4.63;1674209.63;5053991;28;19999;-87
2021/01/11 02:45:54;;;;;;;2.22;2.13;;;;;;;0.05;4.63;1674209.63;5054021;28;20028;-86
2021/01/11 02:48:22;;;;;;;0.50;0.50;;;;;;;0.05;4.63;1662543.25;5052800;28;20520;-86
2021/01/11 02:50:55;;;;;;;0.68;0.68;;;;;;;0.05;4.64;1681015.00;5053753;28;20504;-87
2021/01/11 02:53:32;;;;;;;1.25;1.25;;;;;;;0.05;4.63;1644071.63;5052423;28;20117;-86
2021/01/11 02:56:03;;;;;;;0.70;0.70;;;;;;;0.05;4.63;1623655.75;5053060;28;20025;-86
2021/01/11 02:58:56;;;;;;;3.45;0.80;;;;;;;0.05;4.63;1605184.38;5053716;28;20036;-87
2021/01/11 03:01:27;;;;;;;1.83;1.73;;;;;;;0.05;4.63;1591574.00;5041835;28;20044;-87
2021/01/11 03:03:55;;;;;;;1.98;0.73;;;;;;;0.05;4.63;1627544.50;5053792;28;20409;-87
2021/01/11 03:06:28;;;;;;;0.60;0.60;;;;;;;0.05;4.64;1623655.75;5052412;28;20534;-86
2021/01/11 03:08:53;;;;;;;1.77;1.27;;;;;;;0.05;4.63;1612961.75;5052691;28;20076;-86
2021/01/11 03:11:20;;;;;;;1.10;1.05;;;;;;;0.05;4.62;1611989.63;5052437;28;20039;-86
2021/01/11 03:13:45;;;;;;;1.05;0.88;;;;;;;0.05;4.62;1619767.13;5052583;28;20036;-86
2021/01/11 03:16:11;;;;;;;3.10;2.15;;;;;;;0.05;4.62;1551715.13;5052346;28;20411;-87
2021/01/11 03:18:36;;;;;;;1.08;1.02;;;;;;;0.05;4.60;1496302.50;5052345;28;20477;-87
2021/01/11 03:21:02;;;;;;;1.45;1.23;;;;;;;0.05;4.60;1455472.63;5052370;28;20040;-87
2021/01/11 03:23:27;;;;;;;2.58;1.55;;;;;;;0.05;4.61;1447695.63;5053507;28;20035;-87
2021/01/11 03:25:52;;;;;;;1.02;0.95;;;;;;;0.05;4.61;1449639.88;5052253;28;20033;-87
2021/01/11 03:28:18;;;;;;;0.65;0.65;;;;;;;0.05;4.61;1446723.50;5053779;28;20104;-86
2021/01/11 03:30:43;;;;;;;0.90;0.90;;;;;;;0.05;4.61;1445751.38;5052356;28;20530;-87
2021/01/11 03:33:09;;;;;;;0.60;0.60;;;;;;;0.05;4.60;1463249.75;5053389;28;20108;-86
2021/01/11 03:35:34;;;;;;;0.65;0.65;;;;;;;0.05;4.61;1484636.75;5053094;28;20470;-87
2021/01/11 03:37:59;;;;;;;0.80;0.80;;;;;;;0.05;4.60;1505051.75;5053136;28;20021;-86
2021/01/11 03:40:25;;;;;;;0.50;0.50;;;;;;;0.05;4.60;1570186.25;5051924;28;20029;-86
2021/01/11 03:42:50;;;;;;;0.30;0.30;;;;;;;0.05;4.60;1631433.25;5052816;28;20086;-87
2021/01/11 03:45:16;;;;;;;1.00;1.00;;;;;;;0.05;4.61;1669348.63;5053289;28;20032;-87
2021/01/11 03:47:41;;;;;;;0.57;0.57;;;;;;;0.05;4.62;1713097.75;5053126;28;20021;-87
2021/01/11 03:50:07;;;;;;;1.50;1.45;;;;;;;0.05;4.62;1726708.63;5051991;28;20029;-87
2021/01/11 03:52:34;;;;;;;0.30;0.30;;;;;;;0.05;4.62;1759764.00;5052899;28;20032;-88
2021/01/11 03:55:00;;;;;;;1.27;1.20;;;;;;;0.05;4.63;1777264.00;5052024;28;20033;-87
2021/01/11 03:57:28;;;;;;;0.88;0.88;;;;;;;0.05;4.63;1828792.50;5052829;28;20031;-86
2021/01/11 03:59:54;;;;;;;1.10;0.95;;;;;;;0.05;4.63;1906572.63;5053036;28;20159;-87
2021/01/11 04:02:19;;;;;;;0.68;0.68;;;;;;;0.05;4.63;1980465.50;5053527;28;20103;-87
2021/01/11 04:04:44;;;;;;;1.27;1.17;;;;;;;0.05;4.63;2012551.13;5052893;28;20083;-87
2021/01/11 04:07:10;;;;;;;0.20;0.20;;;;;;;0.05;4.63;2056304.75;5051870;28;20033;-86
2021/01/11 04:09:35;;;;;;;0.30;0.30;;;;;;;0.05;4.63;2072834.00;5051612;28;20029;-87
2021/01/11 04:12:01;;;;;;;0.40;0.40;;;;;;;0.05;4.63;2059221.63;5052872;28;20037;-87
2021/01/11 04:14:26;;;;;;;0.55;0.55;;;;;;;0.05;4.63;2067972.50;5052896;28;20429;-87
2021/01/11 04:16:52;;;;;;;1.08;0.75;;;;;;;0.05;4.63;2089363.38;5051902;28;20033;-87
2021/01/11 04:19:18;;;;;;;0.20;0.20;;;;;;;0.05;4.63;2031997.13;5052555;28;20116;-87
2021/01/11 04:21:43;;;;;;;0.55;0.55;;;;;;;0.05;4.63;1989216.13;5051784;28;20116;-87
2021/01/11 04:24:09;;;;;;;0.57;0.57;;;;;;;0.05;4.63;1937685.25;5051552;28;20079;-86
2021/01/11 04:26:34;;;;;;;0.30;0.30;;;;;;;0.05;4.62;1906572.63;5052856;28;20025;-87
2021/01/11 04:29:00;;;;;;;1.85;1.75;;;;;;;0.05;4.62;1887127.50;5051529;28;20052;-87
2021/01/11 04:31:25;;;;;;;0.20;0.20;;;;;;;0.05;4.62;1864765.50;5051750;28;20393;-87
2021/01/11 04:33:51;;;;;;;0.57;0.57;;;;;;;0.05;4.62;1832681.38;5051488;28;20040;-87
2021/01/11 04:36:16;;;;;;;0.20;0.20;;;;;;;0.05;4.62;1816153.25;5051617;28;20025;-87
2021/01/11 04:38:41;;;;;;;0.20;0.20;;;;;;;0.05;4.63;1819070.00;5051544;28;20036;-87
2021/01/11 04:41:07;;;;;;;0.47;0.47;;;;;;;0.05;4.63;1841431.63;5051185;28;20071;-87
2021/01/11 04:43:39;;;;;;;0.38;0.38;;;;;;;0.05;4.63;1885182.88;5052660;28;20121;-87
2021/01/11 04:46:05;;;;;;;11.88;0.77;;;;;;;0.05;4.63;1952269.38;5052151;28;20094;-87
2021/01/11 04:48:31;;;;;;;0.20;0.20;;;;;;;0.05;4.63;2023246.38;5051415;28;20488;-87
2021/01/11 04:50:57;;;;;;;0.20;0.20;;;;;;;0.05;4.63;2095197.25;5052594;28;20086;-87
2021/01/11 04:53:25;;;;;;;0.43;0.43;;;;;;;0.05;4.63;2175900.75;5052298;28;20045;-87
2021/01/11 04:55:53;;;;;;;0.20;0.20;;;;;;;0.05;4.62;2237159.00;5053475;28;20500;-86
2021/01/11 04:58:21;;;;;;;0.50;0.50;;;;;;;0.05;4.62;2259523.25;5056094;28;20469;-87
2021/01/11 05:00:48;;;;;;;2.90;1.25;;;;;;;0.05;4.62;2291611.50;5056073;28;20032;-87
2021/01/11 05:03:13;;;;;;;0.20;0.20;;;;;;;0.05;4.62;2331479.25;5056017;28;20119;-87
2021/01/11 05:05:43;;;;;;;0.40;0.40;;;;;;;0.05;4.62;2384961.00;5054662;28;20079;-87
2021/01/11 05:08:09;;;;;;;0.30;0.30;;;;;;;0.05;4.62;2455947.25;5054812;28;20036;-86
2021/01/11 05:10:36;;;;;;;1.08;0.55;;;;;;;0.05;4.63;2552218.75;5055854;28;20029;-87
2021/01/11 05:13:04;;;;;;;0.20;0.20;;;;;;;0.05;4.63;2666970.25;5055808;28;20079;-87
2021/01/11 05:15:32;;;;;;;0.90;0.90;;;;;;;0.05;4.64;2752550.00;5054717;28;20033;-87
2021/01/11 05:17:58;;;;;;;0.35;0.35;;;;;;;0.05;4.64;2794368.25;5055702;28;20026;-87
2021/01/11 05:20:27;;;;;;;1.38;1.27;;;;;;;0.05;4.64;2806038.50;5055586;28;20037;-87
2021/01/11 05:22:54;;;;;;;0.77;0.77;;;;;;;0.05;4.64;2807011.00;5055567;28;20029;-87
2021/01/11 05:25:21;;;;;;;0.30;0.30;;;;;;;0.05;4.65;2752550.00;5054503;28;20029;-88
2021/01/11 05:28:12;;;;;;;0.10;0.10;;;;;;;0.05;4.65;2693227.50;5054594;28;20021;-88
2021/01/11 05:30:42;;;;;;;0.20;0.20;;;;;;;0.05;4.65;2605704.00;5055656;28;20313;-87
2021/01/11 05:33:22;;;;;;;0.10;0.10;;;;;;;0.05;4.65;2489010.00;5054171;28;20171;-87
2021/01/11 05:36:12;;;;;;;0.30;0.30;;;;;;;0.05;4.64;2362595.75;5054643;28;20025;-87
2021/01/11 05:38:48;;;;;;;0.20;0.20;;;;;;;0.05;4.64;2233269.50;5055394;28;20029;-87
2021/01/11 05:41:22;;;;;;;0.20;0.20;;;;;;;0.05;4.63;2069917.00;5054218;28;20031;-87
2021/01/11 05:44:14;;;;;;;5.68;0.93;;;;;;;0.05;4.62;1908517.25;5054499;28;20385;-88
2021/01/11 05:46:42;;;;;;;0.20;0.20;;;;;;;0.05;4.62;1819070.00;5046379;28;20029;-88
2021/01/11 05:49:12;;;;;;;0.20;0.20;;;;;;;0.05;4.61;1708236.63;5054496;28;20029;-87
2021/01/11 05:51:38;;;;;;;0.65;0.30;;;;;;;0.05;4.61;1629488.88;5054971;28;20029;-88
2021/01/11 05:54:05;;;;;;;0.20;0.20;;;;;;;0.05;4.61;1586713.13;5055230;28;20136;-88
2021/01/11 05:56:54;;;;;;;6.95;2.17;;;;;;;0.05;4.61;1545882.25;5054929;28;20406;-88
2021/01/11 05:59:20;;;;;;;1.48;1.48;;;;;;;0.05;4.60;1558520.25;5055073;28;20032;-87
2021/01/11 06:01:46;;;;;;;2.15;1.95;;;;;;;0.05;4.60;1582824.50;5053850;28;20025;-87
2021/01/11 06:04:11;;;;;;;2.47;1.95;;;;;;;0.05;4.59;1508940.38;5055046;28;20041;-86
2021/01/11 06:06:38;;;;;;;0.57;0.57;;;;;;;0.05;4.60;1184258.75;5054287;28;20029;-87
2021/01/11 06:09:03;;;;;;;0.85;0.85;;;;;;;0.05;4.62;1057894.25;5053041;28;20056;-87
2021/01/11 06:11:29;;;;;;;1.00;0.98;;;;;;;0.05;4.64;1129824.25;5054733;28;20033;-88
2021/01/11 06:13:58;;;;;;;0.30;0.30;;;;;;;0.05;4.63;1164817.75;5053929;28;20127;-88
2021/01/11 06:16:28;;;;;;;0.20;0.20;;;;;;;0.05;4.63;1194951.38;5054596;28;20104;-87
2021/01/11 06:18:54;;;;;;;0.20;0.20;;;;;;;0.05;4.63;1209532.25;5054382;28;20032;-87
2021/01/11 06:21:20;;;;;;;1.65;1.55;;;;;;;0.05;4.64;1220225.00;5053661;28;20029;-88
2021/01/11 06:23:46;;;;;;;1.67;1.45;;;;;;;0.05;4.64;1182314.75;5054493;28;20089;-88
2021/01/11 06:26:27;;;;;;;2.65;1.52;;;;;;;0.05;4.65;1219252.88;5054557;28;20028;-87
2021/01/11 06:28:54;;;;;;;1.20;1.20;;;;;;;0.05;4.65;1294102.63;5054327;28;20029;-87
2021/01/11 06:31:26;;;;;;;0.25;0.25;;;;;;;0.05;4.66;1353400.38;5054285;28;20033;-88
2021/01/11 06:33:52;;;;;;;1.65;1.55;;;;;;;0.05;4.66;1399089.50;5053613;28;20036;-88
2021/01/11 06:36:18;;;;;;;4.75;4.38;;;;;;;0.05;4.67;1459361.25;5054419;28;20112;-87
2021/01/11 06:38:45;;;;;;;2.78;2.33;;;;;;;0.05;4.68;1497274.63;5052986;28;20051;-86
2021/01/11 06:41:13;;;;;;;0.77;0.77;;;;;;;0.05;4.68;1541993.50;5054247;28;20032;-86
2021/01/11 06:43:52;;;;;;;0.47;0.47;;;;;;;0.05;4.68;1613934.00;5053097;28;20470;-86
2021/01/11 06:46:27;;;;;;;0.28;0.28;;;;;;;0.05;4.70;1675181.75;5053415;28;20029;-86
2021/01/11 06:48:54;;;;;;;0.65;0.65;;;;;;;0.05;4.70;1686848.25;5054582;28;20082;-87
2021/01/11 06:51:29;;;;;;;0.30;0.30;;;;;;;0.05;4.70;1690736.50;5054057;28;20377;-86
2021/01/11 06:54:12;;;;;;;0.30;0.30;;;;;;;0.05;4.70;1694625.38;5053874;28;20053;-87
2021/01/11 06:56:38;;;;;;;0.68;0.68;;;;;;;0.05;4.69;1673237.00;5053958;28;20060;-87
2021/01/11 06:59:12;;;;;;;0.20;0.20;;;;;;;0.05;4.69;1657681.88;5052675;28;20543;-87
2021/01/11 07:01:39;;;;;;;0.22;0.22;;;;;;;0.05;4.69;1677126.25;5053955;28;20052;-88
2021/01/11 07:04:06;;;;;;;0.30;0.30;;;;;;;0.05;4.69;1699486.75;5052928;28;20485;-88
2021/01/11 07:06:32;;;;;;;0.20;0.20;;;;;;;0.05;4.69;1724764.25;5052462;28;20275;-87
2021/01/11 07:09:09;;;;;;;0.40;0.40;;;;;;;0.05;4.68;1708236.63;5052568;28;20017;-88
2021/01/11 07:11:35;;;;;;;0.20;0.20;;;;;;;0.05;4.67;1664487.63;5054327;28;20499;-88
2021/01/11 07:14:02;;;;;;;0.65;0.65;;;;;;;0.05;4.66;1596434.88;5052288;28;20037;-88
2021/01/11 07:16:44;;;;;;;0.20;0.20;;;;;;;0.05;4.66;1569214.13;5053524;28;20036;-88
2021/01/11 07:19:11;;;;;;;1.05;1.00;;;;;;;0.05;4.66;1548798.75;5052093;28;20056;-87
2021/01/11 07:21:37;;;;;;;0.30;0.30;;;;;;;0.05;4.65;1474915.38;5053398;28;20409;-88
2021/01/11 07:24:05;;;;;;;0.20;0.20;;;;;;;0.05;4.62;1396173.13;5053503;28;20033;-88
2021/01/11 07:26:31;;;;;;;0.20;0.20;;;;;;;0.05;4.60;1325210.00;5053383;28;20064;-88
2021/01/11 07:28:58;;;;;;;3.22;3.03;;;;;;;0.05;4.59;1307712.75;5052287;28;20075;-88
2021/01/11 07:31:27;;;;;;;0.52;0.52;;;;;;;0.05;4.59;1274661.88;5052144;28;20572;-89
2021/01/11 07:34:01;;;;;;;0.38;0.35;;;;;;;0.05;4.59;1253276.25;5052182;28;20400;-88
2021/01/11 07:36:28;;;;;;;0.20;0.20;;;;;;;0.05;4.59;1261052.75;5053555;28;20067;-89
2021/01/11 07:39:10;;;;;;;0.20;0.20;;;;;;;0.05;4.59;1231890.63;5053023;28;20480;-89
2021/01/11 07:41:41;;;;;;;0.20;0.20;;;;;;;0.05;4.58;1226058.25;5052875;28;20040;-88
2021/01/11 07:44:18;;;;;;;0.63;0.63;;;;;;;0.05;4.57;1232863.13;5053199;28;20024;-88
2021/01/11 07:46:53;;;;;;;0.20;0.20;;;;;;;0.05;4.57;1233835.25;5052172;28;20477;-89
2021/01/11 07:49:18;;;;;;;0.20;0.20;;;;;;;0.05;4.58;1242583.88;5053108;28;20021;-89
2021/01/11 07:51:45;;;;;;;0.63;0.63;;;;;;;0.05;4.57;1171623.50;5053121;28;20028;-90
2021/01/11 07:54:14;;;;;;;1.17;1.17;;;;;;;0.05;4.55;1133713.75;5052913;28;20432;-88
2021/01/11 07:56:40;;;;;;;4.85;3.40;;;;;;;0.05;4.56;1105524.75;5053012;28;20035;-89
2021/01/11 07:59:06;;;;;;;13.10;6.78;;;;;;;0.05;4.55;1014155.69;5053146;28;20112;-88
2021/01/11 08:01:40;;;;;;;9.68;8.80;;;;;;;0.05;4.55;933480.38;5051931;28;20028;-89
2021/01/11 08:04:06;;;;;;;6.78;3.45;;;;;;;0.05;4.54;823648.50;5053273;28;20033;-89
2021/01/11 08:06:59;;;;;;;3.67;2.40;;;;;;;0.05;4.53;677860.00;5052936;28;20033;-89
2021/01/11 08:09:29;;;;;;;0.60;0.52;;;;;;;0.05;4.51;499034.31;5052910;28;20037;-89
2021/01/11 08:12:15;;;;;;;0.55;0.55;;;;;;;0.05;4.50;341598.38;5052272;28;20106;-88
2021/01/11 08:14:41;;;;;;;0.22;0.22;;;;;;;0.05;4.50;235673.59;5051931;28;20160;-88
2021/01/11 08:17:13;;;;;;;0.20;0.20;;;;;;;0.05;4.49;163763.00;5051734;28;20025;-89
2021/01/11 08:19:42;;;;;;;0.10;0.10;;;;;;;0.05;4.49;101571.28;5053241;28;20105;-88
2021/01/11 08:22:10;;;;;;;0.43;0.43;;;;;;;0.05;4.49;47154.50;5052740;28;20036;-88
2021/01/11 08:24:36;;;;;;;0.30;0.30;;;;;;;0.05;4.49;-47101.03;5053120;28;20033;-88
2021/01/11 08:27:14;;;;;;;0.35;0.35;;;;;;;0.05;4.48;-95685.34;5051699;28;20041;-88
2021/01/11 08:29:41;;;;;;;;;;;;;;;0.05;4.48;-123863.91;5053142;28;20033;-89
2021/01/11 08:32:11;;;;;;;0.20;0.20;;;;;;;0.05;4.47;-163702.16;5054768;28;19908;-89
2021/01/11 08:34:37;;;;;;;3.20;1.00;;;;;;;0.05;4.46;-163702.16;5056636;28;20071;-89
2021/01/11 08:37:22;;;;;;;2.17;2.05;;;;;;;0.05;4.46;-123863.91;5055464;28;20120;-89
2021/01/11 08:40:02;;;;;;;3.17;2.88;;;;;;;0.05;4.46;-125806.81;5055274;28;20028;-88
2021/01/11 08:42:29;;;;;;;0.70;0.70;;;;;;;0.05;4.45;-134551.81;5055513;28;20546;-89
2021/01/11 08:44:54;;;;;;;0.70;0.70;;;;;;;0.05;4.45;-164672.94;5056144;28;20515;-89
2021/01/11 08:47:27;;;;;;;4.20;2.85;;;;;;;0.05;4.43;-140381.38;5056373;28;20037;-89
2021/01/11 08:50:04;;;;;;;1.08;0.85;;;;;;;0.05;4.43;-138438.00;5056252;28;20078;-88
2021/01/11 08:52:32;;;;;;;0.63;0.63;;;;;;;0.05;4.44;-167587.88;5055081;28;20175;-88
2021/01/11 08:55:11;;;;;;;1.60;1.50;;;;;;;0.05;4.43;-200624.09;5056140;28;20033;-88
2021/01/11 08:57:37;;;;;;;5.00;3.42;;;;;;;0.05;4.41;-202567.38;5056249;28;20025;-89
2021/01/11 09:00:12;;;;;;;0.60;0.60;;;;;;;0.05;4.41;-169531.19;5054868;28;20028;-89
2021/01/11 09:02:45;;;;;;;1.48;1.38;;;;;;;0.05;4.42;-144268.03;5056596;28;20064;-89
2021/01/11 09:05:16;;;;;;;0.75;0.75;;;;;;;0.05;4.43;-148154.66;5054728;28;20115;-89
2021/01/11 09:07:42;;;;;;;13.40;0.70;;;;;;;0.05;4.43;-171474.53;5054783;28;20189;-89
2021/01/11 09:10:34;;;;;;;0.60;0.60;;;;;;;0.05;4.43;-207425.63;5054829;28;20029;-89
2021/01/11 09:13:20;;;;;;;2.35;2.25;;;;;;;0.05;4.43;-219085.34;5055311;28;20067;-89
2021/01/11 09:15:46;;;;;;;0.20;0.20;;;;;;;0.05;4.44;-239489.75;5055944;28;20029;-90
2021/01/11 09:18:13;;;;;;;4.20;3.72;;;;;;;0.05;4.44;-243376.31;5054523;28;20032;-88
2021/01/11 09:20:43;;;;;;;0.73;0.73;;;;;;;0.05;4.44;-199652.41;5054608;28;20021;-89
2021/01/11 09:23:10;;;;;;;1.92;1.80;;;;;;;0.05;4.45;-170502.88;5054478;28;20416;-89
2021/01/11 09:25:36;;;;;;;1.13;1.13;;;;;;;0.05;4.46;-176332.78;5055756;28;20033;-89
2021/01/11 09:28:04;;;;;;;3.97;3.63;;;;;;;0.05;4.46;-137466.34;5055626;28;20037;-90
2021/01/11 09:30:30;;;;;;;1.98;1.83;;;;;;;0.05;4.47;-69449.03;5054464;28;20033;-89
2021/01/11 09:32:56;;;;;;;2.03;1.83;;;;;;;0.05;4.48;-15034.13;5054414;28;20040;-90
2021/01/11 09:35:22;;;;;;;4.75;3.30;;;;;;;0.05;4.48;29664.47;5055265;28;20069;-89
2021/01/11 09:37:48;;;;;;;3.38;2.22;;;;;;;0.05;4.47;63674.22;5055385;28;20036;-88
2021/01/11 09:40:14;;;;;;;0.80;0.80;;;;;;;0.05;4.49;81164.88;5054372;28;20024;-88
2021/01/11 09:42:40;;;;;;;0.68;0.68;;;;;;;0.05;4.49;90882.22;5055160;28;20033;-88
2021/01/11 09:45:07;;;;;;;2.55;1.67;;;;;;;0.05;4.49;93797.41;5054162;28;20496;-88
2021/01/11 09:47:34;;;;;;;2.72;2.63;;;;;;;0.05;4.49;60758.63;5054116;28;20040;-88
2021/01/11 09:50:00;;;;;;;1.02;0.80;;;;;;;0.05;4.48;71447.59;5055284;28;20033;-88
2021/01/11 09:52:25;;;;;;;1.38;1.13;;;;;;;0.05;4.48;90882.22;5055520;28;20116;-88
2021/01/11 09:54:51;;;;;;;3.55;2.45;;;;;;;0.05;4.48;97684.34;5074289;28;20491;-87
2021/01/11 09:57:17;;;;;;;0.40;0.40;;;;;;;0.05;4.48;121977.81;5075009;28;20536;-89
2021/01/11 09:59:42;;;;;;;1.88;1.70;;;;;;;0.05;4.49;117119.09;5074800;28;20028;-88
2021/01/11 10:02:09;;;;;;;6.70;2.30;;;;;;;0.05;4.49;136554.00;5073664;28;20029;-87
2021/01/11 10:04:35;;;;;;;1.85;1.58;;;;;;;0.05;4.50;140440.97;5074153;28;20032;-87
2021/01/11 10:07:01;;;;;;;3.22;3.03;;;;;;;0.05;4.50;130723.50;5074401;28;20626;-87
2021/01/11 10:09:28;;;;;;;8.13;1.90;;;;;;;0.05;4.50;127808.28;5071722;28;20067;-87
2021/01/11 10:12:12;;;;;;;2.53;1.13;;;;;;;0.05;4.50;140440.97;5071336;28;20025;-87
2021/01/11 10:14:37;;;;;;;11.85;3.88;;;;;;;0.05;4.50;139469.22;5072876;28;20059;-87
2021/01/11 10:17:03;;;;;;;33.15;6.13;;;;;;;0.05;4.50;114203.88;5073198;28;20093;-87
2021/01/11 10:19:29;;;;;;;8.93;7.32;;;;;;;0.05;4.52;80193.16;5071789;28;20409;-87
2021/01/11 10:21:56;;;;;;;1.65;1.55;;;;;;;0.05;4.51;74362.78;5073071;28;20453;-87
2021/01/11 10:24:23;;;;;;;3.70;3.38;;;;;;;0.05;4.52;85051.81;5072712;28;20079;-88
2021/01/11 10:26:50;;;;;;;3.60;2.50;;;;;;;0.05;4.52;78249.69;5073439;28;20028;-88
2021/01/11 10:29:21;;;;;;;0.90;0.90;;;;;;;0.05;4.52;99627.81;5073361;28;20031;-89
2021/01/11 10:31:47;;;;;;;2.33;1.45;;;;;;;0.05;4.52;88938.72;5074545;28;20046;-88
2021/01/11 10:34:15;;;;;;;14.05;7.07;;;;;;;0.05;4.51;64645.53;5074374;28;20147;-88
2021/01/11 10:36:44;;;;;;;16.25;7.45;;;;;;;0.05;4.51;82136.63;5074576;28;20021;-87
2021/01/11 10:39:10;;;;;;;5.35;4.68;;;;;;;0.05;4.51;90882.22;5074143;28;20062;-87
2021/01/11 10:41:36;;;;;;;0.60;0.60;;;;;;;0.05;4.51;117119.09;5073218;28;20029;-88
2021/01/11 10:44:03;;;;;;;0.75;0.75;;;;;;;0.05;4.52;141412.72;5074243;28;20039;-88
2021/01/11 10:46:28;;;;;;;0.55;0.55;;;;;;;0.05;4.52;178339.34;5074282;28;20033;-88
2021/01/11 10:48:54;;;;;;;0.47;0.32;;;;;;;0.05;4.52;166678.28;5073191;28;20074;-87
2021/01/11 10:51:22;;;;;;;1.55;1.48;;;;;;;0.05;4.53;217209.94;5073096;28;20028;-88
2021/01/11 10:53:50;;;;;;;0.65;0.65;;;;;;;0.05;4.53;254137.41;5072116;28;20052;-88
2021/01/11 10:56:16;;;;;;;1.58;1.52;;;;;;;0.05;4.54;266770.56;5074068;28;20032;-88
2021/01/11 10:58:41;;;;;;;4.85;1.60;;;;;;;0.05;4.54;280375.59;5073971;28;20052;-88
2021/01/11 11:01:16;;;;;;;0.73;0.73;;;;;;;0.05;4.53;231786.50;5072886;28;20031;-88
2021/01/11 11:03:42;;;;;;;2.72;2.50;;;;;;;0.05;4.53;145299.72;5072965;28;20032;-87
2021/01/11 11:06:08;;;;;;;1.80;1.70;;;;;;;0.05;4.52;103514.75;5072873;28;20082;-88
2021/01/11 11:08:34;;;;;;;3.28;2.20;;;;;;;0.05;4.51;80193.16;5072759;28;20465;-88
2021/01/11 11:11:00;;;;;;;0.93;0.93;;;;;;;0.05;4.51;54928.28;5072610;28;20054;-87
2021/01/11 11:13:25;;;;;;;2.38;1.95;;;;;;;0.05;4.51;27720.13;5072669;28;20512;-87
2021/01/11 11:15:51;;;;;;;2.13;1.55;;;;;;;0.05;4.51;-19893.53;5072663;28;20036;-88
2021/01/11 11:18:16;;;;;;;1.35;1.35;;;;;;;0.05;4.51;-101515.41;5072654;28;20021;-87
2021/01/11 11:20:45;;;;;;;0.80;0.75;;;;;;;0.05;4.50;-260866.59;5073606;28;20127;-87
2021/01/11 11:23:11;;;;;;;1.77;1.42;;;;;;;0.05;4.48;-414380.19;5072505;28;20028;-87
2021/01/11 11:25:36;;;;;;;4.75;2.00;;;;;;;0.05;4.46;-537768.81;5072374;28;20024;-88
2021/01/11 11:28:03;;;;;;;3.08;0.45;;;;;;;0.05;4.46;-591203.63;5073549;28;20029;-87
2021/01/11 11:30:29;;;;;;;1.63;1.52;;;;;;;0.05;4.46;-604805.00;5073612;28;20025;-87
2021/01/11 11:32:54;;;;;;;1.00;1.00;;;;;;;0.05;4.47;-633950.81;5073368;28;20108;-87
2021/01/11 11:35:21;;;;;;;3.17;2.03;;;;;;;0.05;4.47;-748588.31;5072373;28;20038;-87
2021/01/11 11:37:47;;;;;;;4.18;2.03;;;;;;;0.05;4.44;-889451.06;5073249;28;20028;-87
2021/01/11 11:40:14;;;;;;;2.38;0.82;;;;;;;0.05;4.44;-1049735.38;5072100;28;20036;-87
2021/01/11 11:42:41;;;;;;;2.30;2.20;;;;;;;0.06;4.42;-1142016.63;5073248;28;20085;-87
2021/01/11 11:45:14;;;;;;;0.70;0.70;;;;;;;0.06;4.43;-1153673.00;5072220;28;20024;-87